Dickinson, ND (58601)

5:05 AM MST on December 11, 2016 (GMT -0700)
Southview | | Change Station

Elev 2434 ft 46.86 °N, 102.78 °W | Updated 18 seconds ago

Overcast
Overcast
1.5 °F
Feels Like 1 °F
N
2.0
Wind Variable Wind from ESE

Today
High -- | Low -- °F
--% Chance of Precip.
Yesterday
High -- | Low -- °F
Precip. -- in
Pressure 30.03 in
Visibility 5.0 miles
Clouds Overcast 2600 ft
Windchill 1 °F
Dew Point -1 °F
Humidity 86%
Rainfall 0.00 in
Snow Depth Not available.
7:26 AM 4:02 PM
Waxing Gibbous, 91% visible
METAR KDIK 111156Z AUTO 33005KT 5SM BR OVC026 M17/M18 A2983 RMK AO2 SNB02E41 SLP168 P0000 60000 70001 I6000 T11671183 11161 21189 53001
Pressure 30.03 in
Visibility 5.0 miles
Clouds Overcast 2600 ft
Windchill 1 °F
Dew Point -1 °F
Humidity 86%
Rainfall 0.00 in
Snow Depth Not available.
7:26 AM 4:02 PM
Waxing Gibbous, 91% visible
METAR KDIK 111156Z AUTO 33005KT 5SM BR OVC026 M17/M18 A2983 RMK AO2 SNB02E41 SLP168 P0000 60000 70001 I6000 T11671183 11161 21189 53001

10-Day Weather Forecast

Almanac

Astronomy

Dec. 11, 2016 Rise Set
Actual Time
Civil Twilight
Nautical Twilight
Astronomical Twilight
Moon
Length of Visible Light
Length of Day
Tomorrow will be .
, % of the Moon is Illuminated

Today's Extremes

State Highs State Lows

Community

WunderPhotos

Upload Photos

1,956,710 photos uploaded!

WunderBlog® & News

Nearby

Air Quality

  Air Quality AQ Index Pollutant
Not available.

Snow Depth

Station Depth Elevation

Earthquake Activity

City Distance Mag. Time & Date
Minimum magnitude displayed is 2.5.

Coastal Water Temperatures

Place Temperature

Stations

Nearby Weather Stations

Station Location Temp. Windchill Dew Point Humidity Wind Precip. Elev Updated Type
                   

Watches & Warnings

There are currently no watches in effect.